createdAt,value
2023-01-28T00:02:08.623Z,7.82
2023-01-28T00:04:35.646Z,8.35
2023-01-28T00:07:02.817Z,8.75
2023-01-28T00:09:29.938Z,8.57
2023-01-28T00:11:57.155Z,8.25
2023-01-28T00:14:24.394Z,8.68
2023-01-28T00:16:51.555Z,9.15
2023-01-28T00:19:18.569Z,9.00
2023-01-28T00:21:45.646Z,9.18
2023-01-28T00:24:12.875Z,8.48
2023-01-28T00:26:39.950Z,8.07
2023-01-28T00:29:07.217Z,7.70
2023-01-28T00:31:35.502Z,7.20
2023-01-28T00:34:02.772Z,6.95
2023-01-28T00:36:29.831Z,5.85
2023-01-28T00:38:59.009Z,4.63
2023-01-28T00:41:28.981Z,4.63
2023-01-28T00:43:56.473Z,4.40
2023-01-28T00:46:25.412Z,4.32
2023-01-28T00:48:52.668Z,4.95
2023-01-28T00:51:20.790Z,4.78
2023-01-28T00:53:47.964Z,4.85
2023-01-28T00:56:16.949Z,5.03
2023-01-28T00:58:45.419Z,4.65
2023-01-28T01:01:19.493Z,4.47
2023-01-28T01:04:02.469Z,4.38
2023-01-28T01:06:31.636Z,4.13
2023-01-28T01:08:58.824Z,4.38
2023-01-28T01:11:26.283Z,4.20
2023-01-28T01:13:55.575Z,4.75
2023-01-28T01:16:25.288Z,4.28
2023-01-28T01:18:53.663Z,4.10
2023-01-28T01:21:24.128Z,4.43
2023-01-28T01:23:52.522Z,4.70
2023-01-28T01:26:19.991Z,4.20
2023-01-28T01:28:48.249Z,4.15
2023-01-28T01:31:18.249Z,4.55
2023-01-28T01:33:48.344Z,4.88
2023-01-28T01:36:17.382Z,4.50
2023-01-28T01:38:44.625Z,4.40
2023-01-28T01:41:24.941Z,4.78
2023-01-28T01:43:56.812Z,4.75
2023-01-28T01:46:39.230Z,4.93
2023-01-28T01:49:15.153Z,5.68
2023-01-28T01:51:43.928Z,5.47
2023-01-28T01:54:11.280Z,5.53
2023-01-28T01:56:43.048Z,5.15
2023-01-28T01:59:14.965Z,5.80
2023-01-28T02:01:45.754Z,5.22
2023-01-28T02:04:19.910Z,4.95
2023-01-28T02:06:48.158Z,5.00
2023-01-28T02:09:30.570Z,5.07
2023-01-28T02:12:02.414Z,4.80
2023-01-28T02:14:35.275Z,4.65
2023-01-28T02:17:23.046Z,5.03
2023-01-28T02:19:57.475Z,5.05
2023-01-28T02:22:38.428Z,4.95
2023-01-28T02:25:53.750Z,5.22
2023-01-28T02:28:27.918Z,5.00
2023-01-28T02:31:02.310Z,5.60
2023-01-28T02:33:55.234Z,4.90
2023-01-28T02:36:25.377Z,5.50
2023-01-28T02:38:54.479Z,6.07
2023-01-28T02:41:32.043Z,6.60
2023-01-28T02:44:03.020Z,6.60
2023-01-28T02:46:48.544Z,6.75
2023-01-28T02:49:20.144Z,6.95
2023-01-28T02:52:12.264Z,6.63
2023-01-28T02:55:08.768Z,6.47
2023-01-28T02:57:38.941Z,6.53
2023-01-28T03:00:25.969Z,6.45
2023-01-28T03:03:27.032Z,6.03
2023-01-28T03:06:09.128Z,5.93
2023-01-28T03:09:06.835Z,5.93
2023-01-28T03:11:59.585Z,6.30
2023-01-28T03:14:46.287Z,6.70
2023-01-28T03:17:37.887Z,7.13
2023-01-28T03:20:24.239Z,7.07
2023-01-28T03:23:15.616Z,6.38
2023-01-28T03:26:05.809Z,6.30
2023-01-28T03:28:54.343Z,6.25
2023-01-28T03:31:42.487Z,6.65
2023-01-28T03:34:30.203Z,6.75
2023-01-28T03:36:57.680Z,6.78
2023-01-28T03:39:27.733Z,6.85
2023-01-28T03:42:13.850Z,7.50
2023-01-28T03:44:53.266Z,7.80
2023-01-28T03:47:23.348Z,7.35
2023-01-28T03:49:53.018Z,7.30
2023-01-28T03:52:32.233Z,7.28
2023-01-28T03:54:59.715Z,8.02
2023-01-28T03:57:28.661Z,8.38
2023-01-28T03:59:55.767Z,8.70
2023-01-28T04:02:23.860Z,9.23
2023-01-28T04:04:50.881Z,9.68
2023-01-28T04:07:18.526Z,9.48
2023-01-28T04:09:45.552Z,9.85
2023-01-28T04:12:12.593Z,9.73
2023-01-28T04:14:40.389Z,10.57
2023-01-28T04:17:10.862Z,9.95
2023-01-28T04:19:40.458Z,10.45
2023-01-28T04:22:10.358Z,10.15
2023-01-28T04:24:37.396Z,10.32
2023-01-28T04:27:04.713Z,9.82
2023-01-28T04:29:32.001Z,9.93
2023-01-28T04:31:59.015Z,10.73
2023-01-28T04:34:26.086Z,9.77
2023-01-28T04:36:53.088Z,10.02
2023-01-28T04:39:20.106Z,9.32
2023-01-28T04:41:47.213Z,9.30
2023-01-28T04:44:14.546Z,9.57
2023-01-28T04:46:41.608Z,9.55
2023-01-28T04:49:08.746Z,9.63
2023-01-28T04:51:35.910Z,8.38
2023-01-28T04:54:02.979Z,8.32
2023-01-28T04:56:30.120Z,8.48
2023-01-28T04:58:57.231Z,8.68
2023-01-28T05:01:25.213Z,8.00
2023-01-28T05:03:52.594Z,7.88
2023-01-28T05:06:19.666Z,7.72
2023-01-28T05:08:46.901Z,7.93
2023-01-28T05:11:14.406Z,7.60
2023-01-28T05:13:42.690Z,7.55
2023-01-28T05:16:09.840Z,7.97
2023-01-28T05:18:37.226Z,7.05
2023-01-28T05:21:04.603Z,7.40
2023-01-28T05:23:31.750Z,6.82
2023-01-28T05:25:58.841Z,6.70
2023-01-28T05:28:25.927Z,6.15
2023-01-28T05:30:52.987Z,6.13
2023-01-28T05:33:21.272Z,6.20
2023-01-28T05:35:49.742Z,6.78
2023-01-28T05:38:17.475Z,6.20
2023-01-28T05:40:44.869Z,6.43
2023-01-28T05:43:11.929Z,6.32
2023-01-28T05:45:39.460Z,6.15
2023-01-28T05:48:06.778Z,6.32
2023-01-28T05:50:34.048Z,6.47
2023-01-28T05:53:01.126Z,6.38
2023-01-28T05:55:28.224Z,6.65
2023-01-28T05:57:55.354Z,6.30
2023-01-28T06:00:23.728Z,6.75
2023-01-28T06:02:53.907Z,6.45
2023-01-28T06:05:21.236Z,6.65
2023-01-28T06:07:48.742Z,6.97
2023-01-28T06:10:18.242Z,6.47
2023-01-28T06:12:45.353Z,6.70
2023-01-28T06:15:12.713Z,6.03
2023-01-28T06:17:41.819Z,6.88
2023-01-28T06:20:09.977Z,7.63
2023-01-28T06:22:37.028Z,7.22
2023-01-28T06:25:04.483Z,8.02
2023-01-28T06:27:31.628Z,8.38
2023-01-28T06:29:58.790Z,8.75
2023-01-28T06:32:25.892Z,7.85
2023-01-28T06:34:53.231Z,9.55
2023-01-28T06:37:20.639Z,8.38
2023-01-28T06:39:47.742Z,10.20
2023-01-28T06:42:14.808Z,9.13
2023-01-28T06:44:41.851Z,9.30
2023-01-28T06:47:09.859Z,11.27
2023-01-28T06:49:38.035Z,9.60
2023-01-28T06:52:05.296Z,13.02
2023-01-28T06:54:32.396Z,11.85
2023-01-28T06:56:59.472Z,12.65
2023-01-28T06:59:27.182Z,12.90
2023-01-28T07:01:54.365Z,13.27
2023-01-28T07:04:21.424Z,12.70
2023-01-28T07:06:48.606Z,13.50
2023-01-28T07:09:15.679Z,14.25
2023-01-28T07:11:42.795Z,14.02
2023-01-28T07:14:10.095Z,13.65
2023-01-28T07:16:37.251Z,14.18
2023-01-28T07:19:04.392Z,14.50
2023-01-28T07:21:31.554Z,13.57
2023-01-28T07:24:00.197Z,12.40
2023-01-28T07:26:27.362Z,11.88
2023-01-28T07:28:54.428Z,13.68
2023-01-28T07:31:21.648Z,13.38
2023-01-28T07:33:48.725Z,12.40
2023-01-28T07:36:15.735Z,11.63
2023-01-28T07:38:42.894Z,10.02
2023-01-28T07:41:10.180Z,10.73
2023-01-28T07:43:37.280Z,11.55
2023-01-28T07:46:04.772Z,12.30
2023-01-28T07:48:32.019Z,12.15
2023-01-28T07:51:00.189Z,11.43
2023-01-28T07:53:27.351Z,10.52
2023-01-28T07:56:00.816Z,11.13
2023-01-28T07:58:28.383Z,10.20
2023-01-28T08:00:59.288Z,9.95
2023-01-28T08:03:27.208Z,9.75
2023-01-28T08:05:56.418Z,10.70
2023-01-28T08:08:24.899Z,8.82
2023-01-28T08:10:52.699Z,9.85
2023-01-28T08:13:20.249Z,9.20
2023-01-28T08:15:47.581Z,10.73
2023-01-28T08:18:16.674Z,9.52
2023-01-28T08:20:45.117Z,9.10
2023-01-28T08:23:15.147Z,9.75
2023-01-28T08:25:42.646Z,10.25
2023-01-28T08:28:10.177Z,10.02
2023-01-28T08:30:39.160Z,10.77
2023-01-28T08:33:09.022Z,10.90
2023-01-28T08:35:36.934Z,11.07
2023-01-28T08:38:05.733Z,11.05
2023-01-28T08:40:33.283Z,11.48
2023-01-28T08:43:00.701Z,10.85
2023-01-28T08:45:28.994Z,11.40
2023-01-28T08:48:04.816Z,11.80
2023-01-28T08:50:34.948Z,10.65
2023-01-28T08:53:05.097Z,11.32
2023-01-28T08:55:33.245Z,10.82
2023-01-28T08:58:10.071Z,10.60
2023-01-28T09:00:37.268Z,11.02
2023-01-28T09:03:06.261Z,11.05
2023-01-28T09:05:35.986Z,11.13
2023-01-28T09:08:08.668Z,11.65
2023-01-28T09:10:37.746Z,11.70
2023-01-28T09:13:09.592Z,12.23
2023-01-28T09:15:37.875Z,12.85
2023-01-28T09:18:05.570Z,11.85
2023-01-28T09:20:33.420Z,11.63
2023-01-28T09:23:01.619Z,11.80
2023-01-28T09:25:29.199Z,12.30
2023-01-28T09:27:57.352Z,12.75
2023-01-28T09:30:26.345Z,12.20
2023-01-28T09:32:54.480Z,12.68
2023-01-28T09:35:22.445Z,13.27
2023-01-28T09:37:49.580Z,12.98
2023-01-28T09:40:28.664Z,13.85
2023-01-28T09:43:18.213Z,12.80
2023-01-28T09:45:48.803Z,13.65
2023-01-28T09:48:24.429Z,13.25
2023-01-28T09:50:54.889Z,13.55
2023-01-28T09:53:21.956Z,14.25
2023-01-28T09:56:03.748Z,13.48
2023-01-28T09:58:31.846Z,13.80
2023-01-28T10:01:57.825Z,15.18
2023-01-28T10:04:40.295Z,13.52
2023-01-28T10:07:45.243Z,14.85
2023-01-28T10:10:26.424Z,13.60
2023-01-28T10:13:23.155Z,13.98
2023-01-28T10:16:08.793Z,14.73
2023-01-28T10:18:46.566Z,15.48
2023-01-28T10:21:22.721Z,16.48
2023-01-28T10:24:15.603Z,15.15
2023-01-28T10:26:44.458Z,15.25
2023-01-28T10:29:24.625Z,16.23
2023-01-28T10:32:21.134Z,16.25
2023-01-28T10:34:48.359Z,15.65
2023-01-28T10:37:16.437Z,16.58
2023-01-28T10:39:44.626Z,14.98
2023-01-28T10:42:29.184Z,15.32
2023-01-28T10:45:33.226Z,14.88
2023-01-28T10:48:24.629Z,15.38
2023-01-28T10:50:59.720Z,15.73
2023-01-28T10:53:41.648Z,16.13
2023-01-28T10:56:10.625Z,16.02
2023-01-28T10:59:18.180Z,15.85
2023-01-28T11:01:49.853Z,15.77
2023-01-28T11:04:28.332Z,15.93
2023-01-28T11:07:02.078Z,15.38
2023-01-28T11:09:32.330Z,16.23
2023-01-28T11:12:12.284Z,16.17
2023-01-28T11:14:44.109Z,16.58
2023-01-28T11:17:17.604Z,16.15
2023-01-28T11:19:45.612Z,16.33
2023-01-28T11:22:36.882Z,16.20
2023-01-28T11:25:15.162Z,16.15
2023-01-28T11:27:51.450Z,17.10
2023-01-28T11:30:25.983Z,17.35
2023-01-28T11:33:16.392Z,17.55
2023-01-28T11:35:52.640Z,17.52
2023-01-28T11:38:23.225Z,21.13
2023-01-28T11:40:55.065Z,20.55
2023-01-28T11:43:27.296Z,19.00
2023-01-28T11:46:07.061Z,18.98
2023-01-28T11:48:48.947Z,18.30
2023-01-28T11:51:27.743Z,18.58
2023-01-28T11:54:32.999Z,18.90
2023-01-28T11:57:03.291Z,19.50
2023-01-28T11:59:57.451Z,19.75
2023-01-28T12:02:45.114Z,18.50
2023-01-28T12:05:30.618Z,19.23
2023-01-28T12:08:06.972Z,18.65
2023-01-28T12:11:00.975Z,19.35
2023-01-28T12:13:37.329Z,19.00
2023-01-28T12:16:23.925Z,18.52
2023-01-28T12:19:03.524Z,19.35
2023-01-28T12:21:39.662Z,19.33
2023-01-28T12:24:31.047Z,19.25
2023-01-28T12:27:12.753Z,19.42
2023-01-28T12:29:58.953Z,19.05
2023-01-28T12:32:59.683Z,18.85
2023-01-28T12:35:51.356Z,17.17
2023-01-28T12:38:47.374Z,17.80
2023-01-28T12:41:19.139Z,17.65
2023-01-28T12:43:57.092Z,18.70
2023-01-28T12:46:55.763Z,18.63
2023-01-28T12:49:48.463Z,19.02
2023-01-28T12:52:24.168Z,18.38
2023-01-28T12:55:12.983Z,19.00
2023-01-28T12:57:41.105Z,19.63
2023-01-28T13:00:27.473Z,18.80
2023-01-28T13:03:06.945Z,18.35
2023-01-28T13:05:39.630Z,19.05
2023-01-28T13:08:22.787Z,17.67
2023-01-28T13:13:38.635Z,18.13
2023-01-28T13:16:09.030Z,17.67
2023-01-28T13:18:45.467Z,18.13
2023-01-28T13:21:17.222Z,17.75
2023-01-28T13:23:46.847Z,16.85
2023-01-28T13:26:19.883Z,16.65
2023-01-28T13:28:48.912Z,17.08
2023-01-28T13:31:22.135Z,14.48
2023-01-28T13:33:55.178Z,14.95
2023-01-28T13:39:18.079Z,14.52
2023-01-28T13:41:50.648Z,12.93
2023-01-28T13:44:26.443Z,14.13
2023-01-28T13:47:07.492Z,14.02
2023-01-28T13:49:51.049Z,13.88
2023-01-28T13:52:28.813Z,13.18
2023-01-28T13:55:13.867Z,14.35
2023-01-28T13:58:02.670Z,13.68
2023-01-28T14:00:48.399Z,14.02
2023-01-28T14:03:24.175Z,15.43
2023-01-28T14:06:06.432Z,14.73
2023-01-28T14:08:51.657Z,14.82
2023-01-28T14:11:52.789Z,14.23
2023-01-28T14:14:55.158Z,15.00
2023-01-28T14:17:52.244Z,15.63
2023-01-28T14:20:37.767Z,15.05
2023-01-28T14:23:14.564Z,14.60
2023-01-28T14:26:00.962Z,15.65
2023-01-28T14:28:57.124Z,14.68
2023-01-28T14:31:34.146Z,14.13
2023-01-28T14:34:11.514Z,14.88
2023-01-28T14:36:41.191Z,13.80
2023-01-28T14:39:20.400Z,14.75
2023-01-28T14:41:50.983Z,14.55
2023-01-28T14:44:25.531Z,14.98
2023-01-28T14:46:59.504Z,15.02
2023-01-28T14:49:55.394Z,15.40
2023-01-28T14:52:45.335Z,14.65
2023-01-28T14:55:43.395Z,15.32
2023-01-28T14:58:17.877Z,15.20
2023-01-28T15:00:55.005Z,14.88
2023-01-28T15:03:25.353Z,14.60
2023-01-28T15:06:12.647Z,15.55
2023-01-28T15:08:40.491Z,15.40
2023-01-28T15:11:11.499Z,16.15
2023-01-28T15:14:02.111Z,15.43
2023-01-28T15:16:32.836Z,14.20
2023-01-28T15:19:01.830Z,14.00
2023-01-28T15:21:30.476Z,13.35
2023-01-28T15:24:00.578Z,13.90
2023-01-28T15:26:31.016Z,13.68
2023-01-28T15:28:58.182Z,13.05
2023-01-28T15:31:32.831Z,14.80
2023-01-28T15:34:14.979Z,14.60
2023-01-28T15:36:43.224Z,14.15
2023-01-28T15:39:21.768Z,14.07
2023-01-28T15:42:02.332Z,13.20
2023-01-28T15:44:39.822Z,13.93
2023-01-28T15:47:17.304Z,13.48
2023-01-28T15:49:48.748Z,13.05
2023-01-28T15:52:16.145Z,13.48
2023-01-28T15:54:47.661Z,14.45
2023-01-28T15:57:22.918Z,14.00
2023-01-28T15:59:51.457Z,14.38
2023-01-28T16:02:23.198Z,13.63
2023-01-28T16:05:01.224Z,13.85
2023-01-28T16:07:30.668Z,14.73
2023-01-28T16:10:00.607Z,13.68
2023-01-28T16:12:28.611Z,13.02
2023-01-28T16:14:58.640Z,13.10
2023-01-28T16:17:31.079Z,14.30
2023-01-28T16:20:02.570Z,13.45
2023-01-28T16:22:35.413Z,13.20
2023-01-28T16:25:03.879Z,13.50
2023-01-28T16:27:34.697Z,13.98
2023-01-28T16:30:01.924Z,14.18
2023-01-28T16:32:33.770Z,13.27
2023-01-28T16:35:01.370Z,13.73
2023-01-28T16:37:30.983Z,15.88
2023-01-28T16:40:00.293Z,14.43
2023-01-28T16:42:32.551Z,14.75
2023-01-28T16:44:59.634Z,15.45
2023-01-28T16:47:26.870Z,17.83
2023-01-28T16:49:53.967Z,17.55
2023-01-28T16:52:21.168Z,18.55
2023-01-28T16:54:48.390Z,20.42
2023-01-28T16:57:21.978Z,23.17
2023-01-28T16:59:49.301Z,22.63
2023-01-28T17:02:17.973Z,21.92
2023-01-28T17:04:45.670Z,24.23
2023-01-28T17:07:12.809Z,20.58
2023-01-28T17:09:39.822Z,20.00
2023-01-28T17:12:07.696Z,20.30
2023-01-28T17:14:35.018Z,19.63
2023-01-28T17:17:02.065Z,18.35
2023-01-28T17:19:29.166Z,17.77
2023-01-28T17:21:56.238Z,17.55
2023-01-28T17:24:23.372Z,18.38
2023-01-28T17:26:54.276Z,17.05
2023-01-28T17:29:21.323Z,18.13
2023-01-28T17:31:48.679Z,17.42
2023-01-28T17:34:15.781Z,17.77
2023-01-28T17:36:42.803Z,18.25
2023-01-28T17:39:10.060Z,20.65
2023-01-28T17:41:37.257Z,20.10
2023-01-28T17:44:04.697Z,19.17
2023-01-28T17:46:32.300Z,19.95
2023-01-28T17:48:59.574Z,19.85
2023-01-28T17:51:26.710Z,19.50
2023-01-28T17:53:54.319Z,20.25
2023-01-28T17:56:23.571Z,21.20
2023-01-28T17:58:56.385Z,21.13
2023-01-28T18:01:25.288Z,20.27
2023-01-28T18:03:52.722Z,20.45
2023-01-28T18:06:19.933Z,19.73
2023-01-28T18:08:47.221Z,19.40
2023-01-28T18:11:18.909Z,19.50
2023-01-28T18:13:46.453Z,19.33
2023-01-28T18:16:16.331Z,19.20
2023-01-28T18:18:44.550Z,18.95
2023-01-28T18:21:34.747Z,18.63
2023-01-28T18:24:07.755Z,20.05
2023-01-28T18:26:34.903Z,18.58
2023-01-28T18:29:02.197Z,17.73
2023-01-28T18:31:29.340Z,18.13
2023-01-28T18:33:57.511Z,18.65
2023-01-28T18:36:24.699Z,18.42
2023-01-28T18:38:52.885Z,17.48
2023-01-28T18:41:20.054Z,18.13
2023-01-28T18:43:47.143Z,18.33
2023-01-28T18:46:18.024Z,17.75
2023-01-28T18:48:45.447Z,19.17
2023-01-28T18:51:28.504Z,18.20
2023-01-28T18:54:02.251Z,20.08
2023-01-28T18:56:30.561Z,20.73
2023-01-28T18:59:02.989Z,20.40
2023-01-28T19:01:31.212Z,20.88
2023-01-28T19:03:59.371Z,20.00
2023-01-28T19:06:28.296Z,20.52
2023-01-28T19:09:01.091Z,20.30
2023-01-28T19:11:30.358Z,20.88
2023-01-28T19:13:58.039Z,20.67
2023-01-28T19:16:25.879Z,20.50
2023-01-28T19:18:58.299Z,20.08
2023-01-28T19:21:26.873Z,19.67
2023-01-28T19:24:01.249Z,19.70
2023-01-28T19:26:31.089Z,21.15
2023-01-28T19:28:58.833Z,20.30
2023-01-28T19:31:26.798Z,21.63
2023-01-28T19:33:59.153Z,20.90
2023-01-28T19:36:28.511Z,21.30
2023-01-28T19:39:02.678Z,21.10
2023-01-28T19:41:30.716Z,20.00
2023-01-28T19:43:58.526Z,20.90
2023-01-28T19:46:26.552Z,19.30
2023-01-28T19:48:54.247Z,19.40
2023-01-28T19:51:21.993Z,19.92
2023-01-28T19:53:54.346Z,20.52
2023-01-28T19:56:23.424Z,19.52
2023-01-28T19:58:52.723Z,20.10
2023-01-28T20:01:24.809Z,19.77
2023-01-28T20:03:54.823Z,20.05
2023-01-28T20:06:23.957Z,20.48
2023-01-28T20:08:54.018Z,20.27
2023-01-28T20:11:22.096Z,22.48
2023-01-28T20:13:50.339Z,20.73
2023-01-28T20:16:29.131Z,22.02
2023-01-28T20:18:59.415Z,22.23
2023-01-28T20:21:30.951Z,21.63
2023-01-28T20:24:00.300Z,21.95
2023-01-28T20:26:33.198Z,22.38
2023-01-28T20:31:49.630Z,19.75
2023-01-28T20:34:21.385Z,22.08
2023-01-28T20:36:48.443Z,21.70
2023-01-28T20:39:15.803Z,22.85
2023-01-28T20:41:43.096Z,22.10
2023-01-28T20:44:10.288Z,22.27
2023-01-28T20:46:39.016Z,22.20
2023-01-28T20:49:06.927Z,22.75
2023-01-28T20:51:35.829Z,22.30
2023-01-28T20:54:03.549Z,21.25
2023-01-28T20:56:31.579Z,22.52
2023-01-28T20:59:02.433Z,23.75
2023-01-28T21:01:34.148Z,24.00
2023-01-28T21:04:01.736Z,24.00
2023-01-28T21:06:29.485Z,22.42
2023-01-28T21:08:57.403Z,21.45
2023-01-28T21:11:25.951Z,22.73
2023-01-28T21:13:54.041Z,22.42
2023-01-28T21:16:21.678Z,23.33
2023-01-28T21:18:49.241Z,22.90
2023-01-28T21:21:27.733Z,23.45
2023-01-28T21:23:57.935Z,23.55
2023-01-28T21:26:25.978Z,23.33
2023-01-28T21:28:53.138Z,21.10
2023-01-28T21:31:22.645Z,21.88
2023-01-28T21:33:55.304Z,22.90
2023-01-28T21:36:23.119Z,24.13
2023-01-28T21:38:55.491Z,21.20
2023-01-28T21:41:22.960Z,23.92
2023-01-28T21:43:53.567Z,23.30
2023-01-28T21:46:22.036Z,23.65
2023-01-28T21:48:49.308Z,23.23
2023-01-28T21:51:35.021Z,23.85
2023-01-28T21:54:04.067Z,22.35
2023-01-28T21:56:31.255Z,20.75
2023-01-28T21:59:16.837Z,20.80
2023-01-28T22:01:45.001Z,22.50
2023-01-28T22:04:13.069Z,23.05
2023-01-28T22:06:42.324Z,24.58
2023-01-28T22:09:13.842Z,21.98
2023-01-28T22:11:42.419Z,23.17
2023-01-28T22:14:09.729Z,22.23
2023-01-28T22:16:37.138Z,23.17
2023-01-28T22:19:04.632Z,23.17
2023-01-28T22:21:31.724Z,22.38
2023-01-28T22:23:58.869Z,23.98
2023-01-28T22:26:25.968Z,23.27
2023-01-28T22:28:53.069Z,23.02
2023-01-28T22:31:20.289Z,23.98
2023-01-28T22:33:47.408Z,23.92
2023-01-28T22:36:16.583Z,24.95
2023-01-28T22:38:45.349Z,23.92
2023-01-28T22:41:22.903Z,25.10
2023-01-28T22:43:51.421Z,21.23
2023-01-28T22:46:20.380Z,22.85
2023-01-28T22:48:47.957Z,21.67
2023-01-28T22:51:21.080Z,23.30
2023-01-28T22:53:49.386Z,23.75
2023-01-28T22:56:18.229Z,25.05
2023-01-28T22:58:45.590Z,24.02
2023-01-28T23:01:15.648Z,24.08
2023-01-28T23:03:47.467Z,23.45
2023-01-28T23:06:17.198Z,21.10
2023-01-28T23:08:44.547Z,23.15
2023-01-28T23:11:15.280Z,23.83
2023-01-28T23:14:02.376Z,22.90
2023-01-28T23:16:49.364Z,23.08
2023-01-28T23:19:35.423Z,23.75
2023-01-28T23:22:21.184Z,21.90
2023-01-28T23:24:48.496Z,21.83
2023-01-28T23:27:15.929Z,21.80
2023-01-28T23:29:42.981Z,22.27
2023-01-28T23:32:11.512Z,20.95
2023-01-28T23:34:44.733Z,21.05
2023-01-28T23:37:15.201Z,21.20
2023-01-28T23:39:43.215Z,18.98
2023-01-28T23:42:18.970Z,20.63
2023-01-28T23:44:46.465Z,20.52
2023-01-28T23:47:14.111Z,20.40
2023-01-28T23:49:41.634Z,21.90
2023-01-28T23:52:09.193Z,22.42
2023-01-28T23:54:36.747Z,22.70
2023-01-28T23:57:05.104Z,23.85
2023-01-28T23:59:32.291Z,24.60
